sensor_id;sensor_type;location;lat;lon;timestamp;P1;durP1;ratioP1;P2;durP2;ratioP2
16416;SDS011;8317;52.186;5.688;2022-12-19T00:01:00;60.27;;;27.87;;
16416;SDS011;8317;52.186;5.688;2022-12-19T00:03:30;39.97;;;19.77;;
16416;SDS011;8317;52.186;5.688;2022-12-19T00:05:59;58.43;;;27.30;;
16416;SDS011;8317;52.186;5.688;2022-12-19T00:08:27;66.20;;;28.97;;
16416;SDS011;8317;52.186;5.688;2022-12-19T00:10:55;51.20;;;22.63;;
16416;SDS011;8317;52.186;5.688;2022-12-19T00:13:23;68.07;;;28.43;;
16416;SDS011;8317;52.186;5.688;2022-12-19T00:15:51;63.13;;;28.20;;
16416;SDS011;8317;52.186;5.688;2022-12-19T00:18:18;76.70;;;31.97;;
16416;SDS011;8317;52.186;5.688;2022-12-19T00:20:53;67.13;;;30.33;;
16416;SDS011;8317;52.186;5.688;2022-12-19T00:23:21;71.80;;;30.37;;
16416;SDS011;8317;52.186;5.688;2022-12-19T00:25:48;74.30;;;32.50;;
16416;SDS011;8317;52.186;5.688;2022-12-19T00:28:15;70.53;;;30.50;;
16416;SDS011;8317;52.186;5.688;2022-12-19T00:30:42;67.40;;;29.87;;
16416;SDS011;8317;52.186;5.688;2022-12-19T00:33:08;85.17;;;33.07;;
16416;SDS011;8317;52.186;5.688;2022-12-19T00:35:35;70.90;;;30.30;;
16416;SDS011;8317;52.186;5.688;2022-12-19T00:38:03;89.53;;;34.63;;
16416;SDS011;8317;52.186;5.688;2022-12-19T00:40:30;76.03;;;31.77;;
16416;SDS011;8317;52.186;5.688;2022-12-19T00:42:57;77.80;;;32.80;;
16416;SDS011;8317;52.186;5.688;2022-12-19T00:45:24;76.17;;;31.63;;
16416;SDS011;8317;52.186;5.688;2022-12-19T00:47:51;74.17;;;30.37;;
16416;SDS011;8317;52.186;5.688;2022-12-19T00:50:18;75.43;;;32.13;;
16416;SDS011;8317;52.186;5.688;2022-12-19T00:52:45;71.00;;;30.33;;
16416;SDS011;8317;52.186;5.688;2022-12-19T00:55:13;75.73;;;30.50;;
16416;SDS011;8317;52.186;5.688;2022-12-19T00:57:40;81.40;;;32.87;;
16416;SDS011;8317;52.186;5.688;2022-12-19T01:00:08;85.03;;;32.97;;
16416;SDS011;8317;52.186;5.688;2022-12-19T01:02:35;71.40;;;31.93;;
16416;SDS011;8317;52.186;5.688;2022-12-19T01:05:03;82.83;;;33.20;;
16416;SDS011;8317;52.186;5.688;2022-12-19T01:07:30;68.00;;;29.47;;
16416;SDS011;8317;52.186;5.688;2022-12-19T01:09:57;79.13;;;33.27;;
16416;SDS011;8317;52.186;5.688;2022-12-19T01:12:25;74.57;;;31.60;;
16416;SDS011;8317;52.186;5.688;2022-12-19T01:15:10;70.60;;;30.50;;
16416;SDS011;8317;52.186;5.688;2022-12-19T01:17:37;69.57;;;30.57;;
16416;SDS011;8317;52.186;5.688;2022-12-19T01:20:04;76.53;;;32.07;;
16416;SDS011;8317;52.186;5.688;2022-12-19T01:22:31;71.73;;;31.70;;
16416;SDS011;8317;52.186;5.688;2022-12-19T01:24:58;79.73;;;32.67;;
16416;SDS011;8317;52.186;5.688;2022-12-19T01:27:26;69.93;;;27.97;;
16416;SDS011;8317;52.186;5.688;2022-12-19T01:29:53;82.50;;;33.50;;
16416;SDS011;8317;52.186;5.688;2022-12-19T01:32:20;72.13;;;31.23;;
16416;SDS011;8317;52.186;5.688;2022-12-19T01:34:47;75.83;;;31.73;;
16416;SDS011;8317;52.186;5.688;2022-12-19T01:37:14;70.13;;;30.57;;
16416;SDS011;8317;52.186;5.688;2022-12-19T01:39:43;67.83;;;31.43;;
16416;SDS011;8317;52.186;5.688;2022-12-19T01:42:12;71.23;;;29.60;;
16416;SDS011;8317;52.186;5.688;2022-12-19T01:47:39;59.17;;;26.73;;
16416;SDS011;8317;52.186;5.688;2022-12-19T01:50:13;67.00;;;28.73;;
16416;SDS011;8317;52.186;5.688;2022-12-19T01:52:43;63.30;;;27.43;;
16416;SDS011;8317;52.186;5.688;2022-12-19T01:55:10;56.03;;;27.83;;
16416;SDS011;8317;52.186;5.688;2022-12-19T01:57:38;56.80;;;28.10;;
16416;SDS011;8317;52.186;5.688;2022-12-19T02:00:06;49.47;;;22.63;;
16416;SDS011;8317;52.186;5.688;2022-12-19T02:02:36;67.27;;;31.73;;
16416;SDS011;8317;52.186;5.688;2022-12-19T02:05:06;68.07;;;30.87;;
16416;SDS011;8317;52.186;5.688;2022-12-19T02:07:34;67.77;;;30.67;;
16416;SDS011;8317;52.186;5.688;2022-12-19T02:10:02;67.90;;;30.03;;
16416;SDS011;8317;52.186;5.688;2022-12-19T02:12:30;72.17;;;32.13;;
16416;SDS011;8317;52.186;5.688;2022-12-19T02:15:01;71.40;;;32.07;;
16416;SDS011;8317;52.186;5.688;2022-12-19T02:17:31;78.13;;;32.50;;
16416;SDS011;8317;52.186;5.688;2022-12-19T02:23:17;71.50;;;31.20;;
16416;SDS011;8317;52.186;5.688;2022-12-19T02:26:00;73.17;;;30.67;;
16416;SDS011;8317;52.186;5.688;2022-12-19T02:28:51;76.83;;;32.47;;
16416;SDS011;8317;52.186;5.688;2022-12-19T02:31:39;74.40;;;32.63;;
16416;SDS011;8317;52.186;5.688;2022-12-19T02:34:13;72.47;;;33.67;;
16416;SDS011;8317;52.186;5.688;2022-12-19T02:36:49;81.70;;;32.93;;
16416;SDS011;8317;52.186;5.688;2022-12-19T02:39:21;81.13;;;33.17;;
16416;SDS011;8317;52.186;5.688;2022-12-19T02:41:53;76.70;;;32.50;;
16416;SDS011;8317;52.186;5.688;2022-12-19T02:44:24;78.27;;;33.77;;
16416;SDS011;8317;52.186;5.688;2022-12-19T02:46:55;78.13;;;33.10;;
16416;SDS011;8317;52.186;5.688;2022-12-19T02:49:23;83.03;;;34.33;;
16416;SDS011;8317;52.186;5.688;2022-12-19T02:51:51;91.70;;;35.57;;
16416;SDS011;8317;52.186;5.688;2022-12-19T02:54:18;72.50;;;28.70;;
16416;SDS011;8317;52.186;5.688;2022-12-19T02:56:47;77.37;;;33.03;;
16416;SDS011;8317;52.186;5.688;2022-12-19T02:59:22;76.47;;;34.13;;
16416;SDS011;8317;52.186;5.688;2022-12-19T03:02:03;78.47;;;33.50;;
16416;SDS011;8317;52.186;5.688;2022-12-19T03:04:38;80.60;;;34.43;;
16416;SDS011;8317;52.186;5.688;2022-12-19T03:07:15;76.03;;;34.83;;
16416;SDS011;8317;52.186;5.688;2022-12-19T03:09:50;76.37;;;34.30;;
16416;SDS011;8317;52.186;5.688;2022-12-19T03:12:22;75.77;;;32.70;;
16416;SDS011;8317;52.186;5.688;2022-12-19T03:14:55;83.57;;;33.63;;
16416;SDS011;8317;52.186;5.688;2022-12-19T03:17:25;75.83;;;34.20;;
16416;SDS011;8317;52.186;5.688;2022-12-19T03:19:52;70.43;;;32.57;;
16416;SDS011;8317;52.186;5.688;2022-12-19T03:22:20;78.53;;;34.23;;
16416;SDS011;8317;52.186;5.688;2022-12-19T03:24:47;87.77;;;36.57;;
16416;SDS011;8317;52.186;5.688;2022-12-19T03:27:15;79.87;;;33.80;;
16416;SDS011;8317;52.186;5.688;2022-12-19T03:29:48;71.13;;;31.57;;
16416;SDS011;8317;52.186;5.688;2022-12-19T03:32:19;69.57;;;29.90;;
16416;SDS011;8317;52.186;5.688;2022-12-19T03:34:51;74.97;;;32.37;;
16416;SDS011;8317;52.186;5.688;2022-12-19T03:37:24;82.60;;;34.23;;
16416;SDS011;8317;52.186;5.688;2022-12-19T03:39:55;82.67;;;33.17;;
16416;SDS011;8317;52.186;5.688;2022-12-19T03:42:29;70.90;;;31.57;;
16416;SDS011;8317;52.186;5.688;2022-12-19T03:45:16;76.10;;;32.43;;
16416;SDS011;8317;52.186;5.688;2022-12-19T03:47:49;72.80;;;32.13;;
16416;SDS011;8317;52.186;5.688;2022-12-19T03:50:21;77.57;;;33.00;;
16416;SDS011;8317;52.186;5.688;2022-12-19T03:52:52;69.80;;;29.50;;
16416;SDS011;8317;52.186;5.688;2022-12-19T03:55:34;77.60;;;33.40;;
16416;SDS011;8317;52.186;5.688;2022-12-19T03:58:06;73.60;;;32.57;;
16416;SDS011;8317;52.186;5.688;2022-12-19T04:00:36;69.53;;;31.33;;
16416;SDS011;8317;52.186;5.688;2022-12-19T04:03:11;73.63;;;31.03;;
16416;SDS011;8317;52.186;5.688;2022-12-19T04:05:40;64.63;;;30.43;;
16416;SDS011;8317;52.186;5.688;2022-12-19T04:08:07;67.60;;;29.30;;
16416;SDS011;8317;52.186;5.688;2022-12-19T04:10:37;65.80;;;29.43;;
16416;SDS011;8317;52.186;5.688;2022-12-19T04:13:08;62.53;;;29.47;;
16416;SDS011;8317;52.186;5.688;2022-12-19T04:15:40;66.20;;;29.90;;
16416;SDS011;8317;52.186;5.688;2022-12-19T04:18:14;63.60;;;28.80;;
16416;SDS011;8317;52.186;5.688;2022-12-19T04:20:44;60.60;;;29.40;;
16416;SDS011;8317;52.186;5.688;2022-12-19T04:23:16;70.73;;;29.10;;
16416;SDS011;8317;52.186;5.688;2022-12-19T04:25:48;60.23;;;26.30;;
16416;SDS011;8317;52.186;5.688;2022-12-19T04:28:17;53.80;;;24.80;;
16416;SDS011;8317;52.186;5.688;2022-12-19T04:30:47;52.80;;;24.70;;
16416;SDS011;8317;52.186;5.688;2022-12-19T04:33:15;49.03;;;21.80;;
16416;SDS011;8317;52.186;5.688;2022-12-19T04:35:43;52.70;;;26.33;;
16416;SDS011;8317;52.186;5.688;2022-12-19T04:38:10;59.23;;;25.03;;
16416;SDS011;8317;52.186;5.688;2022-12-19T04:40:37;60.10;;;25.63;;
16416;SDS011;8317;52.186;5.688;2022-12-19T04:43:04;55.57;;;25.07;;
16416;SDS011;8317;52.186;5.688;2022-12-19T04:45:32;45.63;;;22.60;;
16416;SDS011;8317;52.186;5.688;2022-12-19T04:47:59;45.97;;;20.97;;
16416;SDS011;8317;52.186;5.688;2022-12-19T04:50:26;41.67;;;19.33;;
16416;SDS011;8317;52.186;5.688;2022-12-19T04:52:54;41.80;;;20.50;;
16416;SDS011;8317;52.186;5.688;2022-12-19T04:55:21;40.33;;;20.53;;
16416;SDS011;8317;52.186;5.688;2022-12-19T04:57:48;39.23;;;18.33;;
16416;SDS011;8317;52.186;5.688;2022-12-19T05:00:15;39.53;;;18.57;;
16416;SDS011;8317;52.186;5.688;2022-12-19T05:02:42;37.20;;;19.57;;
16416;SDS011;8317;52.186;5.688;2022-12-19T05:05:09;34.27;;;16.27;;
16416;SDS011;8317;52.186;5.688;2022-12-19T05:07:36;42.17;;;20.17;;
16416;SDS011;8317;52.186;5.688;2022-12-19T05:10:06;40.97;;;20.67;;
16416;SDS011;8317;52.186;5.688;2022-12-19T05:12:35;43.63;;;22.03;;
16416;SDS011;8317;52.186;5.688;2022-12-19T05:15:02;40.27;;;20.00;;
16416;SDS011;8317;52.186;5.688;2022-12-19T05:17:30;38.70;;;21.43;;
16416;SDS011;8317;52.186;5.688;2022-12-19T05:19:57;39.10;;;19.80;;
16416;SDS011;8317;52.186;5.688;2022-12-19T05:22:23;43.40;;;20.50;;
16416;SDS011;8317;52.186;5.688;2022-12-19T05:24:50;42.90;;;22.47;;
16416;SDS011;8317;52.186;5.688;2022-12-19T05:27:21;40.13;;;20.50;;
16416;SDS011;8317;52.186;5.688;2022-12-19T05:29:48;38.23;;;20.10;;
16416;SDS011;8317;52.186;5.688;2022-12-19T05:32:15;40.80;;;19.97;;
16416;SDS011;8317;52.186;5.688;2022-12-19T05:34:42;36.90;;;20.20;;
16416;SDS011;8317;52.186;5.688;2022-12-19T05:37:09;36.60;;;18.67;;
16416;SDS011;8317;52.186;5.688;2022-12-19T05:39:36;32.83;;;17.97;;
16416;SDS011;8317;52.186;5.688;2022-12-19T05:42:02;31.40;;;18.73;;
16416;SDS011;8317;52.186;5.688;2022-12-19T05:44:31;34.87;;;18.70;;
16416;SDS011;8317;52.186;5.688;2022-12-19T05:46:58;29.23;;;15.90;;
16416;SDS011;8317;52.186;5.688;2022-12-19T05:49:25;30.33;;;16.83;;
16416;SDS011;8317;52.186;5.688;2022-12-19T05:51:51;31.60;;;17.53;;
16416;SDS011;8317;52.186;5.688;2022-12-19T05:54:18;28.60;;;16.50;;
16416;SDS011;8317;52.186;5.688;2022-12-19T05:56:45;24.77;;;15.43;;
16416;SDS011;8317;52.186;5.688;2022-12-19T05:59:12;29.77;;;16.97;;
16416;SDS011;8317;52.186;5.688;2022-12-19T06:01:41;31.87;;;15.57;;
16416;SDS011;8317;52.186;5.688;2022-12-19T06:04:07;32.90;;;18.10;;
16416;SDS011;8317;52.186;5.688;2022-12-19T06:06:34;28.13;;;16.20;;
16416;SDS011;8317;52.186;5.688;2022-12-19T06:09:02;30.40;;;18.03;;
16416;SDS011;8317;52.186;5.688;2022-12-19T06:11:29;31.93;;;17.57;;
16416;SDS011;8317;52.186;5.688;2022-12-19T06:13:56;20.87;;;13.27;;
16416;SDS011;8317;52.186;5.688;2022-12-19T06:16:22;30.37;;;17.83;;
16416;SDS011;8317;52.186;5.688;2022-12-19T06:18:51;32.97;;;19.40;;
16416;SDS011;8317;52.186;5.688;2022-12-19T06:21:19;34.37;;;18.90;;
16416;SDS011;8317;52.186;5.688;2022-12-19T06:23:47;34.57;;;17.30;;
16416;SDS011;8317;52.186;5.688;2022-12-19T06:26:15;31.97;;;18.03;;
16416;SDS011;8317;52.186;5.688;2022-12-19T06:28:44;30.67;;;15.90;;
16416;SDS011;8317;52.186;5.688;2022-12-19T06:31:11;30.70;;;18.50;;
16416;SDS011;8317;52.186;5.688;2022-12-19T06:33:39;30.93;;;18.07;;
16416;SDS011;8317;52.186;5.688;2022-12-19T06:36:09;29.50;;;18.40;;
16416;SDS011;8317;52.186;5.688;2022-12-19T06:38:44;29.03;;;15.57;;
16416;SDS011;8317;52.186;5.688;2022-12-19T06:41:11;27.37;;;16.37;;
16416;SDS011;8317;52.186;5.688;2022-12-19T06:43:56;27.20;;;14.43;;
16416;SDS011;8317;52.186;5.688;2022-12-19T06:46:24;31.73;;;18.83;;
16416;SDS011;8317;52.186;5.688;2022-12-19T06:48:51;29.20;;;18.43;;
16416;SDS011;8317;52.186;5.688;2022-12-19T06:51:20;29.13;;;15.77;;
16416;SDS011;8317;52.186;5.688;2022-12-19T06:53:47;22.63;;;12.63;;
16416;SDS011;8317;52.186;5.688;2022-12-19T06:56:14;27.10;;;16.63;;
16416;SDS011;8317;52.186;5.688;2022-12-19T06:58:42;25.70;;;15.83;;
16416;SDS011;8317;52.186;5.688;2022-12-19T07:01:14;25.43;;;15.33;;
16416;SDS011;8317;52.186;5.688;2022-12-19T07:03:42;24.77;;;14.13;;
16416;SDS011;8317;52.186;5.688;2022-12-19T07:06:10;29.00;;;18.07;;
16416;SDS011;8317;52.186;5.688;2022-12-19T07:08:38;27.87;;;15.30;;
16416;SDS011;8317;52.186;5.688;2022-12-19T07:11:05;27.53;;;17.77;;
16416;SDS011;8317;52.186;5.688;2022-12-19T07:13:32;21.50;;;14.03;;
16416;SDS011;8317;52.186;5.688;2022-12-19T07:15:59;24.50;;;15.00;;
16416;SDS011;8317;52.186;5.688;2022-12-19T07:18:28;26.90;;;16.07;;
16416;SDS011;8317;52.186;5.688;2022-12-19T07:20:58;29.90;;;17.77;;
16416;SDS011;8317;52.186;5.688;2022-12-19T07:23:25;28.53;;;16.53;;
16416;SDS011;8317;52.186;5.688;2022-12-19T07:25:55;26.10;;;17.17;;
16416;SDS011;8317;52.186;5.688;2022-12-19T07:28:22;71.30;;;21.53;;
16416;SDS011;8317;52.186;5.688;2022-12-19T07:30:49;38.83;;;18.80;;
16416;SDS011;8317;52.186;5.688;2022-12-19T07:33:16;17.63;;;9.87;;
16416;SDS011;8317;52.186;5.688;2022-12-19T07:35:43;23.70;;;15.87;;
16416;SDS011;8317;52.186;5.688;2022-12-19T07:38:10;20.50;;;14.37;;
16416;SDS011;8317;52.186;5.688;2022-12-19T07:40:37;28.90;;;14.50;;
16416;SDS011;8317;52.186;5.688;2022-12-19T07:43:05;29.23;;;17.30;;
16416;SDS011;8317;52.186;5.688;2022-12-19T07:45:32;28.03;;;16.50;;
16416;SDS011;8317;52.186;5.688;2022-12-19T07:48:02;32.80;;;17.57;;
16416;SDS011;8317;52.186;5.688;2022-12-19T07:50:30;30.95;;;17.38;;
16416;SDS011;8317;52.186;5.688;2022-12-19T07:52:58;24.13;;;13.30;;
16416;SDS011;8317;52.186;5.688;2022-12-19T07:55:25;26.02;;;15.85;;
16416;SDS011;8317;52.186;5.688;2022-12-19T07:57:52;26.67;;;16.77;;
16416;SDS011;8317;52.186;5.688;2022-12-19T08:00:21;26.75;;;15.93;;
16416;SDS011;8317;52.186;5.688;2022-12-19T08:02:48;23.33;;;15.53;;
16416;SDS011;8317;52.186;5.688;2022-12-19T08:05:15;29.23;;;17.75;;
16416;SDS011;8317;52.186;5.688;2022-12-19T08:07:42;29.35;;;16.60;;
16416;SDS011;8317;52.186;5.688;2022-12-19T08:10:10;24.43;;;15.03;;
16416;SDS011;8317;52.186;5.688;2022-12-19T08:12:38;21.10;;;13.70;;
16416;SDS011;8317;52.186;5.688;2022-12-19T08:15:06;25.23;;;14.60;;
16416;SDS011;8317;52.186;5.688;2022-12-19T08:17:34;25.30;;;15.65;;
16416;SDS011;8317;52.186;5.688;2022-12-19T08:20:02;22.17;;;14.98;;
16416;SDS011;8317;52.186;5.688;2022-12-19T08:22:30;22.27;;;14.63;;
16416;SDS011;8317;52.186;5.688;2022-12-19T08:24:57;20.13;;;13.23;;
16416;SDS011;8317;52.186;5.688;2022-12-19T08:27:24;24.50;;;16.03;;
16416;SDS011;8317;52.186;5.688;2022-12-19T08:29:51;24.85;;;16.27;;
16416;SDS011;8317;52.186;5.688;2022-12-19T08:32:18;23.60;;;13.85;;
16416;SDS011;8317;52.186;5.688;2022-12-19T08:34:46;28.77;;;15.85;;
16416;SDS011;8317;52.186;5.688;2022-12-19T08:37:13;21.38;;;14.82;;
16416;SDS011;8317;52.186;5.688;2022-12-19T08:39:40;23.33;;;14.50;;
16416;SDS011;8317;52.186;5.688;2022-12-19T08:42:07;18.98;;;13.35;;
16416;SDS011;8317;52.186;5.688;2022-12-19T08:44:34;20.25;;;12.20;;
16416;SDS011;8317;52.186;5.688;2022-12-19T08:47:01;22.52;;;14.82;;
16416;SDS011;8317;52.186;5.688;2022-12-19T08:49:28;19.02;;;13.55;;
16416;SDS011;8317;52.186;5.688;2022-12-19T08:51:56;18.50;;;11.82;;
16416;SDS011;8317;52.186;5.688;2022-12-19T08:54:23;23.85;;;14.05;;
16416;SDS011;8317;52.186;5.688;2022-12-19T08:56:51;14.65;;;9.80;;
16416;SDS011;8317;52.186;5.688;2022-12-19T08:59:18;21.13;;;13.93;;
16416;SDS011;8317;52.186;5.688;2022-12-19T09:01:44;23.17;;;14.82;;
16416;SDS011;8317;52.186;5.688;2022-12-19T09:04:11;18.92;;;12.55;;
16416;SDS011;8317;52.186;5.688;2022-12-19T09:06:39;18.40;;;11.77;;
16416;SDS011;8317;52.186;5.688;2022-12-19T09:09:07;22.00;;;13.10;;
16416;SDS011;8317;52.186;5.688;2022-12-19T09:11:34;21.33;;;11.25;;
16416;SDS011;8317;52.186;5.688;2022-12-19T09:14:00;19.15;;;12.25;;
16416;SDS011;8317;52.186;5.688;2022-12-19T09:16:29;20.75;;;11.63;;
16416;SDS011;8317;52.186;5.688;2022-12-19T09:18:56;21.13;;;12.30;;
16416;SDS011;8317;52.186;5.688;2022-12-19T09:21:24;16.98;;;11.70;;
16416;SDS011;8317;52.186;5.688;2022-12-19T09:23:53;19.85;;;11.48;;
16416;SDS011;8317;52.186;5.688;2022-12-19T09:26:24;16.20;;;10.65;;
16416;SDS011;8317;52.186;5.688;2022-12-19T09:28:52;18.90;;;11.85;;
16416;SDS011;8317;52.186;5.688;2022-12-19T09:31:20;17.77;;;12.20;;
16416;SDS011;8317;52.186;5.688;2022-12-19T09:33:49;17.17;;;11.18;;
16416;SDS011;8317;52.186;5.688;2022-12-19T09:36:17;21.92;;;13.13;;
16416;SDS011;8317;52.186;5.688;2022-12-19T09:38:45;18.92;;;11.43;;
16416;SDS011;8317;52.186;5.688;2022-12-19T09:41:18;20.50;;;12.32;;
16416;SDS011;8317;52.186;5.688;2022-12-19T09:44:00;22.58;;;13.35;;
16416;SDS011;8317;52.186;5.688;2022-12-19T09:46:38;18.63;;;12.18;;
16416;SDS011;8317;52.186;5.688;2022-12-19T09:49:15;23.52;;;14.27;;
16416;SDS011;8317;52.186;5.688;2022-12-19T09:51:45;23.77;;;13.85;;
16416;SDS011;8317;52.186;5.688;2022-12-19T09:54:19;20.38;;;12.55;;
16416;SDS011;8317;52.186;5.688;2022-12-19T09:56:51;22.50;;;13.57;;
16416;SDS011;8317;52.186;5.688;2022-12-19T09:59:25;18.05;;;13.13;;
16416;SDS011;8317;52.186;5.688;2022-12-19T10:01:55;19.15;;;12.48;;
16416;SDS011;8317;52.186;5.688;2022-12-19T10:04:26;18.33;;;11.73;;
16416;SDS011;8317;52.186;5.688;2022-12-19T10:06:58;20.95;;;11.55;;
16416;SDS011;8317;52.186;5.688;2022-12-19T10:09:27;20.20;;;12.32;;
16416;SDS011;8317;52.186;5.688;2022-12-19T10:12:04;18.10;;;11.65;;
16416;SDS011;8317;52.186;5.688;2022-12-19T10:14:47;17.25;;;12.30;;
16416;SDS011;8317;52.186;5.688;2022-12-19T10:17:25;19.20;;;12.38;;
16416;SDS011;8317;52.186;5.688;2022-12-19T10:20:09;17.83;;;12.13;;
16416;SDS011;8317;52.186;5.688;2022-12-19T10:22:44;21.35;;;10.80;;
16416;SDS011;8317;52.186;5.688;2022-12-19T10:25:24;17.85;;;9.02;;
16416;SDS011;8317;52.186;5.688;2022-12-19T10:28:05;18.23;;;12.15;;
16416;SDS011;8317;52.186;5.688;2022-12-19T10:30:49;20.95;;;12.93;;
16416;SDS011;8317;52.186;5.688;2022-12-19T10:33:25;16.52;;;11.75;;
16416;SDS011;8317;52.186;5.688;2022-12-19T10:35:58;17.90;;;12.13;;
16416;SDS011;8317;52.186;5.688;2022-12-19T10:38:28;16.83;;;11.30;;
16416;SDS011;8317;52.186;5.688;2022-12-19T10:41:06;18.65;;;12.60;;
16416;SDS011;8317;52.186;5.688;2022-12-19T10:43:43;17.40;;;10.32;;
16416;SDS011;8317;52.186;5.688;2022-12-19T10:46:30;16.85;;;10.25;;
16416;SDS011;8317;52.186;5.688;2022-12-19T10:49:05;18.20;;;9.45;;
16416;SDS011;8317;52.186;5.688;2022-12-19T10:51:38;19.00;;;12.38;;
16416;SDS011;8317;52.186;5.688;2022-12-19T10:54:05;17.75;;;10.68;;
16416;SDS011;8317;52.186;5.688;2022-12-19T10:56:32;17.55;;;11.82;;
16416;SDS011;8317;52.186;5.688;2022-12-19T10:59:00;14.93;;;10.27;;
16416;SDS011;8317;52.186;5.688;2022-12-19T11:01:27;19.17;;;10.23;;
16416;SDS011;8317;52.186;5.688;2022-12-19T11:06:48;14.25;;;10.82;;
16416;SDS011;8317;52.186;5.688;2022-12-19T11:12:08;13.05;;;9.98;;
16416;SDS011;8317;52.186;5.688;2022-12-19T11:14:38;12.45;;;10.35;;
16416;SDS011;8317;52.186;5.688;2022-12-19T11:17:22;15.05;;;8.13;;
16416;SDS011;8317;52.186;5.688;2022-12-19T11:19:50;14.38;;;9.88;;
16416;SDS011;8317;52.186;5.688;2022-12-19T11:22:19;20.17;;;9.52;;
16416;SDS011;8317;52.186;5.688;2022-12-19T11:24:49;14.48;;;9.43;;
16416;SDS011;8317;52.186;5.688;2022-12-19T11:27:29;15.30;;;10.25;;
16416;SDS011;8317;52.186;5.688;2022-12-19T11:30:07;15.95;;;10.95;;
16416;SDS011;8317;52.186;5.688;2022-12-19T11:32:43;17.58;;;8.80;;
16416;SDS011;8317;52.186;5.688;2022-12-19T11:35:16;22.83;;;13.75;;
16416;SDS011;8317;52.186;5.688;2022-12-19T11:37:46;36.80;;;18.25;;
16416;SDS011;8317;52.186;5.688;2022-12-19T11:40:20;13.90;;;11.02;;
16416;SDS011;8317;52.186;5.688;2022-12-19T11:42:57;13.15;;;8.73;;
16416;SDS011;8317;52.186;5.688;2022-12-19T11:45:30;11.23;;;8.70;;
16416;SDS011;8317;52.186;5.688;2022-12-19T11:48:07;11.48;;;8.13;;
16416;SDS011;8317;52.186;5.688;2022-12-19T11:50:41;13.82;;;8.38;;
16416;SDS011;8317;52.186;5.688;2022-12-19T11:53:16;14.98;;;8.90;;
16416;SDS011;8317;52.186;5.688;2022-12-19T11:55:48;12.48;;;8.90;;
16416;SDS011;8317;52.186;5.688;2022-12-19T11:58:18;12.05;;;7.35;;
16416;SDS011;8317;52.186;5.688;2022-12-19T12:00:48;12.15;;;9.10;;
16416;SDS011;8317;52.186;5.688;2022-12-19T12:06:19;12.15;;;8.18;;
16416;SDS011;8317;52.186;5.688;2022-12-19T12:08:51;11.88;;;8.45;;
16416;SDS011;8317;52.186;5.688;2022-12-19T12:11:24;12.65;;;8.80;;
16416;SDS011;8317;52.186;5.688;2022-12-19T12:16:52;9.93;;;7.35;;
16416;SDS011;8317;52.186;5.688;2022-12-19T12:19:54;16.52;;;8.55;;
16416;SDS011;8317;52.186;5.688;2022-12-19T12:22:34;12.15;;;8.65;;
16416;SDS011;8317;52.186;5.688;2022-12-19T12:28:07;11.45;;;8.68;;
16416;SDS011;8317;52.186;5.688;2022-12-19T12:30:48;12.90;;;7.95;;
16416;SDS011;8317;52.186;5.688;2022-12-19T12:33:24;13.52;;;8.38;;
16416;SDS011;8317;52.186;5.688;2022-12-19T12:36:00;9.73;;;7.45;;
16416;SDS011;8317;52.186;5.688;2022-12-19T12:38:38;11.25;;;7.88;;
16416;SDS011;8317;52.186;5.688;2022-12-19T12:41:20;13.68;;;6.63;;
16416;SDS011;8317;52.186;5.688;2022-12-19T12:44:12;9.48;;;6.97;;
16416;SDS011;8317;52.186;5.688;2022-12-19T12:46:42;9.23;;;5.97;;
16416;SDS011;8317;52.186;5.688;2022-12-19T12:49:21;10.30;;;6.80;;
16416;SDS011;8317;52.186;5.688;2022-12-19T12:51:58;10.40;;;7.25;;
16416;SDS011;8317;52.186;5.688;2022-12-19T12:54:30;10.20;;;7.00;;
16416;SDS011;8317;52.186;5.688;2022-12-19T12:57:00;11.82;;;5.80;;
16416;SDS011;8317;52.186;5.688;2022-12-19T12:59:28;11.18;;;6.35;;
16416;SDS011;8317;52.186;5.688;2022-12-19T13:01:56;16.52;;;6.68;;
16416;SDS011;8317;52.186;5.688;2022-12-19T13:04:28;8.27;;;6.40;;
16416;SDS011;8317;52.186;5.688;2022-12-19T13:07:11;7.50;;;5.75;;
16416;SDS011;8317;52.186;5.688;2022-12-19T13:09:43;12.73;;;6.13;;
16416;SDS011;8317;52.186;5.688;2022-12-19T13:12:19;9.57;;;7.15;;
16416;SDS011;8317;52.186;5.688;2022-12-19T13:15:29;8.68;;;6.25;;
16416;SDS011;8317;52.186;5.688;2022-12-19T13:18:10;7.80;;;6.03;;
16416;SDS011;8317;52.186;5.688;2022-12-19T13:20:57;10.25;;;7.07;;
16416;SDS011;8317;52.186;5.688;2022-12-19T13:23:33;12.25;;;6.93;;
16416;SDS011;8317;52.186;5.688;2022-12-19T13:26:22;10.85;;;6.85;;
16416;SDS011;8317;52.186;5.688;2022-12-19T13:29:26;6.10;;;5.47;;
16416;SDS011;8317;52.186;5.688;2022-12-19T13:32:09;9.18;;;5.60;;
16416;SDS011;8317;52.186;5.688;2022-12-19T13:34:38;11.18;;;5.60;;
16416;SDS011;8317;52.186;5.688;2022-12-19T13:37:27;10.32;;;6.03;;
16416;SDS011;8317;52.186;5.688;2022-12-19T13:43:07;9.40;;;5.82;;
16416;SDS011;8317;52.186;5.688;2022-12-19T13:45:58;7.70;;;6.15;;
16416;SDS011;8317;52.186;5.688;2022-12-19T13:48:28;9.20;;;5.88;;
16416;SDS011;8317;52.186;5.688;2022-12-19T13:50:58;7.72;;;5.68;;
16416;SDS011;8317;52.186;5.688;2022-12-19T13:53:30;6.78;;;5.18;;
16416;SDS011;8317;52.186;5.688;2022-12-19T13:55:58;7.53;;;5.90;;
16416;SDS011;8317;52.186;5.688;2022-12-19T13:58:27;10.65;;;5.57;;
16416;SDS011;8317;52.186;5.688;2022-12-19T14:00:56;9.05;;;5.07;;
16416;SDS011;8317;52.186;5.688;2022-12-19T14:03:31;7.07;;;4.78;;
16416;SDS011;8317;52.186;5.688;2022-12-19T14:06:00;8.63;;;5.93;;
16416;SDS011;8317;52.186;5.688;2022-12-19T14:08:35;7.25;;;5.50;;
16416;SDS011;8317;52.186;5.688;2022-12-19T14:11:06;12.90;;;5.63;;
16416;SDS011;8317;52.186;5.688;2022-12-19T14:13:36;6.70;;;5.53;;
16416;SDS011;8317;52.186;5.688;2022-12-19T14:16:28;5.18;;;4.55;;
16416;SDS011;8317;52.186;5.688;2022-12-19T14:18:55;6.82;;;5.35;;
16416;SDS011;8317;52.186;5.688;2022-12-19T14:21:24;6.85;;;5.32;;
16416;SDS011;8317;52.186;5.688;2022-12-19T14:24:08;6.65;;;5.20;;
16416;SDS011;8317;52.186;5.688;2022-12-19T14:26:41;6.53;;;5.07;;
16416;SDS011;8317;52.186;5.688;2022-12-19T14:29:11;9.07;;;4.88;;
16416;SDS011;8317;52.186;5.688;2022-12-19T14:31:42;7.43;;;4.53;;
16416;SDS011;8317;52.186;5.688;2022-12-19T14:34:12;7.32;;;4.50;;
16416;SDS011;8317;52.186;5.688;2022-12-19T14:36:48;8.35;;;5.38;;
16416;SDS011;8317;52.186;5.688;2022-12-19T14:39:21;5.30;;;4.68;;
16416;SDS011;8317;52.186;5.688;2022-12-19T14:41:50;9.27;;;5.30;;
16416;SDS011;8317;52.186;5.688;2022-12-19T14:44:43;11.10;;;6.55;;
16416;SDS011;8317;52.186;5.688;2022-12-19T14:47:13;6.85;;;5.22;;
16416;SDS011;8317;52.186;5.688;2022-12-19T14:49:46;7.22;;;5.45;;
16416;SDS011;8317;52.186;5.688;2022-12-19T14:52:32;6.93;;;5.28;;
16416;SDS011;8317;52.186;5.688;2022-12-19T14:55:23;6.57;;;5.22;;
16416;SDS011;8317;52.186;5.688;2022-12-19T14:57:54;6.70;;;4.65;;
16416;SDS011;8317;52.186;5.688;2022-12-19T15:00:24;5.38;;;4.53;;
16416;SDS011;8317;52.186;5.688;2022-12-19T15:02:53;8.65;;;5.32;;
16416;SDS011;8317;52.186;5.688;2022-12-19T15:05:21;10.02;;;7.07;;
16416;SDS011;8317;52.186;5.688;2022-12-19T15:07:49;7.72;;;5.43;;
16416;SDS011;8317;52.186;5.688;2022-12-19T15:10:21;7.53;;;4.82;;
16416;SDS011;8317;52.186;5.688;2022-12-19T15:12:53;7.90;;;4.60;;
16416;SDS011;8317;52.186;5.688;2022-12-19T15:15:41;8.48;;;5.28;;
16416;SDS011;8317;52.186;5.688;2022-12-19T15:18:17;5.90;;;4.97;;
16416;SDS011;8317;52.186;5.688;2022-12-19T15:20:46;6.82;;;4.93;;
16416;SDS011;8317;52.186;5.688;2022-12-19T15:23:13;11.02;;;5.00;;
16416;SDS011;8317;52.186;5.688;2022-12-19T15:25:41;9.45;;;5.60;;
16416;SDS011;8317;52.186;5.688;2022-12-19T15:28:11;5.93;;;4.68;;